createdAt,value
2023-01-19T00:00:49.535Z,97586.16
2023-01-19T00:03:16.137Z,97587.78
2023-01-19T00:05:44.304Z,97582.38
2023-01-19T00:08:14.983Z,97589.31
2023-01-19T00:10:47.231Z,97588.16
2023-01-19T00:13:14.843Z,97595.03
2023-01-19T00:15:41.782Z,97589.13
2023-01-19T00:18:10.580Z,97591.22
2023-01-19T00:20:37.834Z,97588.56
2023-01-19T00:23:04.986Z,97589.88
2023-01-19T00:25:31.724Z,97589.53
2023-01-19T00:28:00.613Z,97583.31
2023-01-19T00:30:28.125Z,97592.59
2023-01-19T00:32:54.643Z,97592.03
2023-01-19T00:35:21.212Z,97592.28
2023-01-19T00:37:47.774Z,97600.47
2023-01-19T00:40:14.334Z,97600.63
2023-01-19T00:42:41.409Z,97601.41
2023-01-19T00:45:09.726Z,97606.72
2023-01-19T00:47:36.501Z,97602.72
2023-01-19T00:50:03.155Z,97607.22
2023-01-19T00:52:29.646Z,97612.84
2023-01-19T00:54:56.181Z,97605.72
2023-01-19T00:57:23.523Z,97600.63
2023-01-19T00:59:50.044Z,97605.72
2023-01-19T01:02:16.825Z,97599.81
2023-01-19T01:04:43.559Z,97605.94
2023-01-19T01:07:10.165Z,97604.56
2023-01-19T01:09:36.659Z,97607.72
2023-01-19T01:12:03.335Z,97609.31
2023-01-19T01:14:32.908Z,97600.53
2023-01-19T01:17:00.659Z,97612.53
2023-01-19T01:19:27.244Z,97607.72
2023-01-19T01:21:53.763Z,97597.31
2023-01-19T01:24:20.772Z,97611.97
2023-01-19T01:26:47.375Z,97609.31
2023-01-19T01:29:13.910Z,97615.09
2023-01-19T01:31:40.490Z,97610.84
2023-01-19T01:34:07.210Z,97607.38
2023-01-19T01:36:34.087Z,97613.50
2023-01-19T01:39:00.704Z,97618.00
2023-01-19T01:41:29.998Z,97614.53
2023-01-19T01:43:58.883Z,97615.59
2023-01-19T01:46:26.913Z,97620.91
2023-01-19T01:49:16.424Z,97608.56
2023-01-19T01:51:49.359Z,97617.59
2023-01-19T01:54:21.721Z,97606.97
2023-01-19T01:56:51.425Z,97620.25
2023-01-19T01:59:29.797Z,97618.03
2023-01-19T02:02:18.950Z,97617.00
2023-01-19T02:04:53.641Z,97612.16
2023-01-19T02:07:52.278Z,97619.09
2023-01-19T02:10:37.654Z,97618.63
2023-01-19T02:13:22.877Z,97613.78
2023-01-19T02:15:52.669Z,97613.53
2023-01-19T02:18:24.479Z,97614.94
2023-01-19T02:20:59.049Z,97611.69
2023-01-19T02:23:46.691Z,97607.19
2023-01-19T02:26:17.005Z,97600.72
2023-01-19T02:28:48.387Z,97599.94
2023-01-19T02:31:15.292Z,97603.94
2023-01-19T02:33:42.101Z,97602.03
2023-01-19T02:36:11.943Z,97603.63
2023-01-19T02:38:41.136Z,97603.38
2023-01-19T02:41:11.230Z,97611.69
2023-01-19T02:43:38.819Z,97608.47
2023-01-19T02:46:05.446Z,97616.91
2023-01-19T02:48:32.203Z,97621.19
2023-01-19T02:51:04.663Z,97619.56
2023-01-19T02:53:53.914Z,97628.09
2023-01-19T02:56:39.832Z,97625.69
2023-01-19T02:59:10.092Z,97622.44
2023-01-19T03:01:47.459Z,97622.78
2023-01-19T03:04:32.344Z,97632.84
2023-01-19T03:07:16.073Z,97622.13
2023-01-19T03:09:52.679Z,97616.81
2023-01-19T03:12:40.744Z,97614.97
2023-01-19T03:15:22.146Z,97620.63
2023-01-19T03:17:51.372Z,97621.50
2023-01-19T03:20:22.542Z,97618.28
2023-01-19T03:22:54.042Z,97613.78
2023-01-19T03:25:23.203Z,97612.41
2023-01-19T03:27:53.943Z,97614.72
2023-01-19T03:30:25.835Z,97617.31
2023-01-19T03:32:56.724Z,97628.94
2023-01-19T03:35:26.400Z,97636.91
2023-01-19T03:37:58.143Z,97625.72
2023-01-19T03:40:30.825Z,97624.69
2023-01-19T03:42:59.312Z,97620.66
2023-01-19T03:45:27.079Z,97632.88
2023-01-19T03:47:55.502Z,97640.28
2023-01-19T03:50:27.288Z,97637.28
2023-01-19T03:53:11.707Z,97637.53
2023-01-19T03:55:41.533Z,97642.03
2023-01-19T03:58:08.515Z,97632.53
2023-01-19T04:00:36.524Z,97637.84
2023-01-19T04:03:07.301Z,97637.84
2023-01-19T04:05:34.236Z,97633.59
2023-01-19T04:08:00.750Z,97643.16
2023-01-19T04:10:27.397Z,97647.22
2023-01-19T04:13:01.302Z,97650.13
2023-01-19T04:15:28.816Z,97650.56
2023-01-19T04:17:58.257Z,97647.91
2023-01-19T04:20:27.049Z,97648.47
2023-01-19T04:22:54.933Z,97650.69
2023-01-19T04:25:21.670Z,97651.72
2023-01-19T04:27:51.989Z,97661.53
2023-01-19T04:30:18.906Z,97658.09
2023-01-19T04:32:45.466Z,97653.34
2023-01-19T04:35:11.903Z,97660.75
2023-01-19T04:37:38.501Z,97660.13
2023-01-19T04:40:05.624Z,97653.47
2023-01-19T04:42:32.539Z,97651.50
2023-01-19T04:44:59.035Z,97658.66
2023-01-19T04:47:25.588Z,97656.25
2023-01-19T04:49:52.331Z,97659.72
2023-01-19T04:52:19.089Z,97663.16
2023-01-19T04:54:45.616Z,97660.50
2023-01-19T04:57:12.195Z,97667.34
2023-01-19T04:59:38.800Z,97666.75
2023-01-19T05:02:05.449Z,97668.38
2023-01-19T05:04:31.942Z,97664.09
2023-01-19T05:06:58.750Z,97667.34
2023-01-19T05:09:29.011Z,97666.75
2023-01-19T05:11:56.451Z,97669.66
2023-01-19T05:14:22.976Z,97661.94
2023-01-19T05:16:49.429Z,97662.97
2023-01-19T05:19:15.977Z,97662.38
2023-01-19T05:21:42.558Z,97670.13
2023-01-19T05:24:09.234Z,97672.53
2023-01-19T05:26:35.753Z,97665.03
2023-01-19T05:29:02.322Z,97670.69
2023-01-19T05:31:28.945Z,97678.31
2023-01-19T05:33:55.597Z,97679.09
2023-01-19T05:36:22.152Z,97685.34
2023-01-19T05:38:49.131Z,97679.00
2023-01-19T05:41:15.638Z,97680.16
2023-01-19T05:43:43.549Z,97680.03
2023-01-19T05:46:10.043Z,97675.03
2023-01-19T05:48:36.531Z,97683.59
2023-01-19T05:51:05.236Z,97678.28
2023-01-19T05:53:32.294Z,97680.03
2023-01-19T05:56:03.640Z,97687.41
2023-01-19T05:58:30.112Z,97689.84
2023-01-19T06:00:56.706Z,97693.06
2023-01-19T06:03:23.409Z,97697.91
2023-01-19T06:05:50.031Z,97698.94
2023-01-19T06:08:16.568Z,97698.38
2023-01-19T06:10:43.087Z,97705.78
2023-01-19T06:13:11.236Z,97714.19
2023-01-19T06:15:38.107Z,97721.03
2023-01-19T06:18:04.790Z,97723.69
2023-01-19T06:20:31.365Z,97720.66
2023-01-19T06:22:58.025Z,97712.13
2023-01-19T06:25:26.142Z,97714.22
2023-01-19T06:27:52.794Z,97726.69
2023-01-19T06:30:19.850Z,97731.19
2023-01-19T06:32:47.523Z,97724.84
2023-01-19T06:35:14.299Z,97724.03
2023-01-19T06:37:41.464Z,97725.09
2023-01-19T06:40:11.112Z,97724.03
2023-01-19T06:42:38.540Z,97724.13
2023-01-19T06:45:05.583Z,97734.06
2023-01-19T06:47:34.420Z,97729.09
2023-01-19T06:50:01.827Z,97737.16
2023-01-19T06:52:28.508Z,97734.88
2023-01-19T06:54:54.973Z,97730.13
2023-01-19T06:57:24.089Z,97735.78
2023-01-19T06:59:50.589Z,97740.63
2023-01-19T07:02:27.985Z,97737.97
2023-01-19T07:04:56.313Z,97746.97
2023-01-19T07:07:22.911Z,97737.41
2023-01-19T07:09:49.771Z,97741.09
2023-01-19T07:12:20.466Z,97738.44
2023-01-19T07:14:47.002Z,97734.16
2023-01-19T07:17:13.507Z,97732.09
2023-01-19T07:19:40.044Z,97737.41
2023-01-19T07:22:06.935Z,97741.09
2023-01-19T07:24:35.008Z,97742.72
2023-01-19T07:27:01.883Z,97731.72
2023-01-19T07:29:28.409Z,97742.72
2023-01-19T07:31:54.992Z,97744.78
2023-01-19T07:34:21.786Z,97741.09
2023-01-19T07:36:48.587Z,97743.50
2023-01-19T07:39:15.254Z,97748.59
2023-01-19T07:41:41.723Z,97756.09
2023-01-19T07:44:08.917Z,97754.00
2023-01-19T07:46:35.415Z,97747.09
2023-01-19T07:49:01.949Z,97745.25
2023-01-19T07:51:28.449Z,97740.16
2023-01-19T07:53:54.984Z,97737.59
2023-01-19T07:56:22.411Z,97751.00
2023-01-19T07:58:50.372Z,97752.34
2023-01-19T08:01:16.940Z,97757.78
2023-01-19T08:03:43.694Z,97756.53
2023-01-19T08:06:24.855Z,97759.28
2023-01-19T08:08:51.481Z,97766.78
2023-01-19T08:11:18.064Z,97772.19
2023-01-19T08:13:44.806Z,97770.94
2023-01-19T08:16:11.394Z,97777.38
2023-01-19T08:18:38.038Z,97778.22
2023-01-19T08:21:04.831Z,97775.06
2023-01-19T08:23:36.555Z,97776.22
2023-01-19T08:26:17.957Z,97780.00
2023-01-19T08:28:44.602Z,97788.66
2023-01-19T08:31:19.671Z,97786.66
2023-01-19T08:33:48.145Z,97795.50
2023-01-19T08:36:14.948Z,97798.94
2023-01-19T08:38:44.084Z,97792.56
2023-01-19T08:41:11.841Z,97797.25
2023-01-19T08:43:38.415Z,97791.22
2023-01-19T08:46:05.708Z,97791.78
2023-01-19T08:48:32.495Z,97791.28
2023-01-19T08:51:00.349Z,97805.19
2023-01-19T08:53:27.202Z,97804.28
2023-01-19T08:55:59.864Z,97807.78
2023-01-19T08:58:26.388Z,97818.53
2023-01-19T09:00:53.553Z,97813.91
2023-01-19T09:03:22.646Z,97812.47
2023-01-19T09:05:49.517Z,97813.91
2023-01-19T09:08:16.245Z,97804.28
2023-01-19T09:10:50.456Z,97810.38
2023-01-19T09:13:19.050Z,97808.09
2023-01-19T09:15:46.484Z,97808.03
2023-01-19T09:18:18.777Z,97805.72
2023-01-19T09:20:47.421Z,97809.31
2023-01-19T09:23:20.112Z,97810.59
2023-01-19T09:25:47.979Z,97808.56
2023-01-19T09:28:17.593Z,97808.66
2023-01-19T09:30:44.877Z,97809.19
2023-01-19T09:33:14.786Z,97811.31
2023-01-19T09:35:42.347Z,97808.09
2023-01-19T09:38:10.605Z,97814.47
2023-01-19T09:40:58.347Z,97815.53
2023-01-19T09:43:34.433Z,97811.22
2023-01-19T09:46:03.917Z,97813.91
2023-01-19T09:48:48.115Z,97812.28
2023-01-19T09:51:26.746Z,97811.22
2023-01-19T09:54:10.915Z,97808.66
2023-01-19T09:56:38.910Z,97806.31
2023-01-19T09:59:32.214Z,97811.94
2023-01-19T10:02:10.925Z,97819.94
2023-01-19T10:05:00.140Z,97814.69
2023-01-19T10:07:32.630Z,97817.91
2023-01-19T10:10:16.478Z,97817.09
2023-01-19T10:13:10.193Z,97809.28
2023-01-19T10:15:55.372Z,97810.66
2023-01-19T10:18:33.214Z,97816.03
2023-01-19T10:21:31.588Z,97804.16
2023-01-19T10:24:14.625Z,97810.88
2023-01-19T10:26:46.008Z,97818.75
2023-01-19T10:29:22.921Z,97818.91
2023-01-19T10:31:52.965Z,97805.28
2023-01-19T10:34:23.350Z,97802.91
2023-01-19T10:36:57.645Z,97801.28
2023-01-19T10:39:24.218Z,97798.00
2023-01-19T10:41:53.326Z,97795.16
2023-01-19T10:44:29.153Z,97791.16
2023-01-19T10:46:59.103Z,97798.09
2023-01-19T10:49:45.971Z,97804.06
2023-01-19T10:52:36.447Z,97796.63
2023-01-19T10:55:06.593Z,97796.03
2023-01-19T10:57:43.562Z,97801.22
2023-01-19T11:00:42.868Z,97794.13
2023-01-19T11:03:29.993Z,97792.38
2023-01-19T11:06:18.734Z,97801.97
2023-01-19T11:08:47.494Z,97792.91
2023-01-19T11:11:14.595Z,97800.72
2023-01-19T11:13:42.786Z,97792.50
2023-01-19T11:16:29.563Z,97796.28
2023-01-19T11:18:57.876Z,97802.75
2023-01-19T11:21:26.945Z,97805.50
2023-01-19T11:23:57.881Z,97794.94
2023-01-19T11:26:29.912Z,97796.03
2023-01-19T11:28:58.619Z,97796.63
2023-01-19T11:31:28.238Z,97792.63
2023-01-19T11:34:01.066Z,97796.34
2023-01-19T11:36:37.809Z,97793.97
2023-01-19T11:39:25.959Z,97797.75
2023-01-19T11:41:57.164Z,97789.03
2023-01-19T11:44:34.230Z,97778.13
2023-01-19T11:47:05.075Z,97778.66
2023-01-19T11:49:47.714Z,97779.47
2023-01-19T11:52:29.498Z,97781.38
2023-01-19T11:55:33.594Z,97776.06
2023-01-19T11:58:00.677Z,97773.38
2023-01-19T12:00:36.083Z,97774.97
2023-01-19T12:03:17.105Z,97770.94
2023-01-19T12:05:48.908Z,97774.66
2023-01-19T12:09:01.683Z,97763.69
2023-01-19T12:11:34.429Z,97765.50
2023-01-19T12:14:02.135Z,97766.53
2023-01-19T12:16:32.918Z,97773.69
2023-01-19T12:19:13.137Z,97768.84
2023-01-19T12:21:39.579Z,97772.59
2023-01-19T12:24:20.887Z,97775.19
2023-01-19T12:26:56.144Z,97770.88
2023-01-19T12:29:26.104Z,97770.88
2023-01-19T12:32:14.434Z,97778.31
2023-01-19T12:34:42.943Z,97775.09
2023-01-19T12:37:40.601Z,97782.53
2023-01-19T12:40:28.842Z,97783.06
2023-01-19T12:43:04.744Z,97780.88
2023-01-19T12:45:35.915Z,97784.88
2023-01-19T12:48:04.414Z,97790.47
2023-01-19T12:50:38.032Z,97790.69
2023-01-19T12:53:15.770Z,97793.13
2023-01-19T12:55:46.549Z,97787.28
2023-01-19T12:58:15.029Z,97796.16
2023-01-19T13:00:43.454Z,97795.41
2023-01-19T13:03:18.960Z,97801.03
2023-01-19T13:05:56.343Z,97800.53
2023-01-19T13:08:30.343Z,97799.97
2023-01-19T13:11:02.793Z,97807.97
2023-01-19T13:13:44.956Z,97797.81
2023-01-19T13:16:20.771Z,97799.09
2023-01-19T13:18:55.174Z,97803.59
2023-01-19T13:21:39.766Z,97800.06
2023-01-19T13:24:12.116Z,97803.22
2023-01-19T13:26:50.679Z,97798.88
2023-01-19T13:29:31.767Z,97807.94
2023-01-19T13:32:03.837Z,97802.88
2023-01-19T13:34:44.641Z,97814.09
2023-01-19T13:37:22.481Z,97809.56
2023-01-19T13:39:52.196Z,97814.34
2023-01-19T13:42:24.744Z,97813.25
2023-01-19T13:44:54.491Z,97811.38
2023-01-19T13:47:31.618Z,97818.59
2023-01-19T13:49:59.064Z,97811.38
2023-01-19T13:52:27.873Z,97816.47
2023-01-19T13:55:02.670Z,97814.28
2023-01-19T13:57:33.321Z,97817.53
2023-01-19T14:00:29.968Z,97815.13
2023-01-19T14:03:25.675Z,97820.19
2023-01-19T14:05:54.668Z,97815.66
2023-01-19T14:08:22.231Z,97821.81
2023-01-19T14:10:54.560Z,97827.94
2023-01-19T14:13:32.788Z,97823.41
2023-01-19T14:16:05.081Z,97828.75
2023-01-19T14:18:35.367Z,97822.34
2023-01-19T14:21:04.024Z,97822.09
2023-01-19T14:23:48.866Z,97824.75
2023-01-19T14:26:37.114Z,97821.28
2023-01-19T14:29:09.553Z,97821.28
2023-01-19T14:31:48.002Z,97815.41
2023-01-19T14:34:36.371Z,97818.06
2023-01-19T14:37:04.709Z,97819.69
2023-01-19T14:39:34.323Z,97823.41
2023-01-19T14:42:04.023Z,97827.69
2023-01-19T14:44:38.727Z,97827.13
2023-01-19T14:47:07.123Z,97815.91
2023-01-19T14:49:42.033Z,97820.19
2023-01-19T14:52:26.037Z,97823.66
2023-01-19T14:54:54.930Z,97823.91
2023-01-19T14:57:21.470Z,97824.72
2023-01-19T14:59:49.611Z,97818.59
2023-01-19T15:02:19.058Z,97815.91
2023-01-19T15:04:47.944Z,97818.59
2023-01-19T15:07:22.838Z,97809.53
2023-01-19T15:09:49.996Z,97816.47
2023-01-19T15:12:18.292Z,97818.06
2023-01-19T15:14:45.688Z,97812.75
2023-01-19T15:17:17.571Z,97826.06
2023-01-19T15:19:44.015Z,97826.06
2023-01-19T15:22:14.735Z,97825.28
2023-01-19T15:24:41.127Z,97823.66
2023-01-19T15:27:12.140Z,97822.88
2023-01-19T15:29:40.216Z,97818.59
2023-01-19T15:32:12.329Z,97816.94
2023-01-19T15:34:38.735Z,97814.78
2023-01-19T15:37:05.094Z,97818.25
2023-01-19T15:39:32.288Z,97810.25
2023-01-19T15:41:59.326Z,97812.13
2023-01-19T15:44:25.977Z,97808.91
2023-01-19T15:46:54.599Z,97807.28
2023-01-19T15:49:21.207Z,97809.63
2023-01-19T15:51:47.636Z,97809.09
2023-01-19T15:54:14.807Z,97809.28
2023-01-19T15:56:42.480Z,97812.19
2023-01-19T15:59:08.934Z,97810.00
2023-01-19T16:01:36.107Z,97810.25
2023-01-19T16:04:05.318Z,97805.72
2023-01-19T16:06:33.033Z,97811.31
2023-01-19T16:09:01.068Z,97804.38
2023-01-19T16:11:30.097Z,97810.72
2023-01-19T16:13:56.846Z,97803.25
2023-01-19T16:16:25.470Z,97806.16
2023-01-19T16:18:52.284Z,97811.16
2023-01-19T16:21:18.861Z,97813.28
2023-01-19T16:23:45.326Z,97811.66
2023-01-19T16:26:34.356Z,97810.88
2023-01-19T16:29:07.698Z,97809.81
2023-01-19T16:31:34.808Z,97815.16
2023-01-19T16:34:03.027Z,97810.06
2023-01-19T16:36:31.957Z,97806.25
2023-01-19T16:39:06.904Z,97820.31
2023-01-19T16:41:34.370Z,97816.81
2023-01-19T16:44:01.470Z,97814.06
2023-01-19T16:46:30.493Z,97819.63
2023-01-19T16:49:10.271Z,97822.53
2023-01-19T16:51:37.548Z,97824.16
2023-01-19T16:54:04.205Z,97824.72
2023-01-19T16:56:30.583Z,97822.31
2023-01-19T16:58:58.558Z,97824.16
2023-01-19T17:01:27.384Z,97825.19
2023-01-19T17:03:55.137Z,97828.91
2023-01-19T17:06:24.035Z,97832.16
2023-01-19T17:08:51.723Z,97832.16
2023-01-19T17:11:20.455Z,97822.06
2023-01-19T17:13:48.033Z,97821.81
2023-01-19T17:16:14.591Z,97817.81
2023-01-19T17:18:41.072Z,97826.88
2023-01-19T17:21:09.956Z,97822.59
2023-01-19T17:23:37.672Z,97821.00
2023-01-19T17:26:05.121Z,97823.66
2023-01-19T17:28:31.525Z,97829.56
2023-01-19T17:31:16.040Z,97823.66
2023-01-19T17:33:47.810Z,97829.25
2023-01-19T17:36:16.622Z,97824.38
2023-01-19T17:38:43.020Z,97827.81
2023-01-19T17:41:24.213Z,97828.28
2023-01-19T17:43:51.407Z,97840.00
2023-01-19T17:46:19.758Z,97833.31
2023-01-19T17:48:51.590Z,97827.16
2023-01-19T17:51:18.154Z,97830.84
2023-01-19T17:53:44.671Z,97835.88
2023-01-19T17:56:16.019Z,97826.53
2023-01-19T17:58:42.944Z,97836.38
2023-01-19T18:01:22.398Z,97841.72
2023-01-19T18:03:49.086Z,97833.94
2023-01-19T18:06:16.231Z,97841.72
2023-01-19T18:08:46.103Z,97833.38
2023-01-19T18:11:13.780Z,97843.00
2023-01-19T18:13:42.921Z,97836.06
2023-01-19T18:16:11.921Z,97842.19
2023-01-19T18:18:38.706Z,97838.47
2023-01-19T18:21:09.863Z,97841.94
2023-01-19T18:23:36.953Z,97840.88
2023-01-19T18:26:09.196Z,97836.38
2023-01-19T18:28:35.936Z,97835.06
2023-01-19T18:31:06.352Z,97833.22
2023-01-19T18:33:34.048Z,97834.03
2023-01-19T18:36:00.994Z,97838.28
2023-01-19T18:38:27.576Z,97834.56
2023-01-19T18:41:02.617Z,97832.50
2023-01-19T18:43:29.423Z,97837.84
2023-01-19T18:45:55.989Z,97838.63
2023-01-19T18:48:22.936Z,97835.16
2023-01-19T18:50:50.029Z,97843.97
2023-01-19T18:53:16.672Z,97830.94
2023-01-19T18:56:11.588Z,97834.41
2023-01-19T18:58:38.975Z,97833.34
2023-01-19T19:01:17.779Z,97838.47
2023-01-19T19:03:44.280Z,97831.53
2023-01-19T19:06:11.684Z,97827.81
2023-01-19T19:08:38.129Z,97834.75
2023-01-19T19:11:08.233Z,97834.75
2023-01-19T19:13:34.789Z,97829.41
2023-01-19T19:16:09.075Z,97832.09
2023-01-19T19:18:36.972Z,97831.03
2023-01-19T19:21:08.346Z,97829.97
2023-01-19T19:23:35.162Z,97841.19
2023-01-19T19:26:08.615Z,97840.38
2023-01-19T19:28:36.682Z,97843.28
2023-01-19T19:31:05.825Z,97839.03
2023-01-19T19:33:32.775Z,97850.75
2023-01-19T19:35:59.853Z,97845.66
2023-01-19T19:38:27.574Z,97849.69
2023-01-19T19:41:00.444Z,97853.88
2023-01-19T19:43:27.407Z,97851.22
2023-01-19T19:46:02.214Z,97854.69
2023-01-19T19:48:29.169Z,97851.22
2023-01-19T19:50:57.525Z,97854.69
2023-01-19T19:53:26.758Z,97852.25
2023-01-19T19:56:01.181Z,97852.19
2023-01-19T19:58:28.417Z,97858.91
2023-01-19T20:00:55.398Z,97858.66
2023-01-19T20:03:22.133Z,97863.72
2023-01-19T20:05:48.525Z,97861.06
2023-01-19T20:08:14.957Z,97858.66
2023-01-19T20:10:41.381Z,97859.47
2023-01-19T20:13:09.170Z,97858.41
2023-01-19T20:15:39.511Z,97853.88
2023-01-19T20:18:06.581Z,97858.19
2023-01-19T20:20:34.457Z,97853.66
2023-01-19T20:23:01.496Z,97859.78
2023-01-19T20:25:28.827Z,97858.97
2023-01-19T20:27:56.878Z,97859.78
2023-01-19T20:30:23.409Z,97863.00
2023-01-19T20:32:51.293Z,97856.06
2023-01-19T20:35:18.102Z,97857.69
2023-01-19T20:37:44.576Z,97861.41
2023-01-19T20:40:11.066Z,97862.22
2023-01-19T20:42:41.197Z,97866.72
2023-01-19T20:45:08.308Z,97868.84
2023-01-19T20:47:34.971Z,97870.44
2023-01-19T20:50:01.479Z,97870.44
2023-01-19T20:52:28.040Z,97876.34
2023-01-19T20:54:54.529Z,97882.72
2023-01-19T20:57:20.923Z,97879.25
2023-01-19T20:59:47.333Z,97881.13
2023-01-19T21:02:15.118Z,97886.66
2023-01-19T21:04:41.702Z,97893.28
2023-01-19T21:07:09.052Z,97891.69
2023-01-19T21:09:37.328Z,97891.13
2023-01-19T21:12:03.899Z,97891.13
2023-01-19T21:14:30.634Z,97891.13
2023-01-19T21:16:58.388Z,97895.66
2023-01-19T21:19:25.380Z,97900.16
2023-01-19T21:21:51.917Z,97910.34
2023-01-19T21:24:18.337Z,97902.34
2023-01-19T21:26:44.903Z,97906.31
2023-01-19T21:29:13.315Z,97910.00
2023-01-19T21:31:40.782Z,97911.31
2023-01-19T21:34:07.209Z,97912.34
2023-01-19T21:36:33.733Z,97909.34
2023-01-19T21:39:00.857Z,97913.88
2023-01-19T21:41:29.769Z,97913.88
2023-01-19T21:43:56.563Z,97911.72
2023-01-19T21:46:29.715Z,97911.16
2023-01-19T21:48:58.567Z,97913.22
2023-01-19T21:51:25.137Z,97913.16
2023-01-19T21:53:59.293Z,97918.41
2023-01-19T21:56:30.183Z,97915.97
2023-01-19T21:58:57.941Z,97917.00
2023-01-19T22:01:24.639Z,97920.16
2023-01-19T22:03:55.870Z,97927.59
2023-01-19T22:06:23.184Z,97923.53
2023-01-19T22:08:49.893Z,97932.56
2023-01-19T22:11:18.776Z,97930.94
2023-01-19T22:13:45.406Z,97925.63
2023-01-19T22:16:13.989Z,97931.75
2023-01-19T22:18:42.696Z,97936.28
2023-01-19T22:21:10.215Z,97932.56
2023-01-19T22:23:37.280Z,97939.03
2023-01-19T22:26:04.866Z,97935.31
2023-01-19T22:28:31.765Z,97939.34
2023-01-19T22:31:14.341Z,97940.16
2023-01-19T22:33:41.340Z,97931.63
2023-01-19T22:36:10.359Z,97943.88
2023-01-19T22:38:38.616Z,97943.88
2023-01-19T22:41:19.699Z,97945.03
2023-01-19T22:43:47.398Z,97943.41
2023-01-19T22:46:17.879Z,97943.41
2023-01-19T22:48:44.630Z,97944.22
2023-01-19T22:51:11.062Z,97948.25
2023-01-19T22:53:37.590Z,97944.53
2023-01-19T22:56:18.685Z,97945.34
2023-01-19T22:58:45.993Z,97943.50
2023-01-19T23:01:15.868Z,97940.00
2023-01-19T23:03:42.635Z,97951.25
2023-01-19T23:06:12.071Z,97942.78
2023-01-19T23:08:39.456Z,97942.78
2023-01-19T23:11:17.450Z,97946.00
2023-01-19T23:13:44.084Z,97951.91
2023-01-19T23:16:11.667Z,97948.44
2023-01-19T23:18:38.924Z,97952.13
2023-01-19T23:21:08.634Z,97950.53
2023-01-19T23:23:35.841Z,97953.78
2023-01-19T23:26:09.547Z,97953.78
2023-01-19T23:28:36.939Z,97951.34
2023-01-19T23:31:25.203Z,97951.69
2023-01-19T23:33:54.195Z,97954.09
2023-01-19T23:36:22.724Z,97955.72
2023-01-19T23:38:57.528Z,97959.44
2023-01-19T23:41:25.472Z,97950.06
2023-01-19T23:43:52.112Z,97962.34
2023-01-19T23:46:19.498Z,97963.94
2023-01-19T23:48:46.261Z,97966.59
2023-01-19T23:51:16.341Z,97973.00
2023-01-19T23:53:43.304Z,97972.44
2023-01-19T23:56:15.235Z,97968.94
2023-01-19T23:58:41.869Z,97973.44
